createdAt,value
2023-03-29T00:00:14.416Z,101221.53
2023-03-29T00:02:48.603Z,101217.16
2023-03-29T00:05:18.391Z,101211.88
2023-03-29T00:07:46.106Z,101214.50
2023-03-29T00:10:13.748Z,101215.41
2023-03-29T00:12:42.007Z,101207.50
2023-03-29T00:15:09.779Z,101208.41
2023-03-29T00:17:37.418Z,101201.44
2023-03-29T00:20:12.556Z,101209.28
2023-03-29T00:22:42.301Z,101205.72
2023-03-29T00:25:11.106Z,101205.75
2023-03-29T00:27:38.794Z,101201.38
2023-03-29T00:30:09.038Z,101197.06
2023-03-29T00:32:37.575Z,101194.41
2023-03-29T00:35:06.353Z,101192.66
2023-03-29T00:37:34.030Z,101186.50
2023-03-29T00:40:01.517Z,101194.38
2023-03-29T00:42:29.274Z,101191.78
2023-03-29T00:45:01.455Z,101189.16
2023-03-29T00:47:34.405Z,101190.91
2023-03-29T00:50:15.914Z,101180.34
2023-03-29T00:52:48.750Z,101180.41
2023-03-29T00:55:21.801Z,101182.97
2023-03-29T00:57:52.316Z,101181.22
2023-03-29T01:00:24.646Z,101188.22
2023-03-29T01:02:55.237Z,101192.63
2023-03-29T01:05:40.563Z,101196.06
2023-03-29T01:08:25.778Z,101199.69
2023-03-29T01:10:59.707Z,101198.84
2023-03-29T01:13:51.607Z,101204.94
2023-03-29T01:16:22.170Z,101196.16
2023-03-29T01:18:50.303Z,101188.31
2023-03-29T01:21:29.403Z,101190.03
2023-03-29T01:24:06.979Z,101193.47
2023-03-29T01:27:06.644Z,101195.28
2023-03-29T01:29:48.748Z,101202.28
2023-03-29T01:32:31.108Z,101190.81
2023-03-29T01:35:01.870Z,101182.94
2023-03-29T01:37:41.438Z,101182.06
2023-03-29T01:40:09.572Z,101182.97
2023-03-29T01:43:07.370Z,101175.97
2023-03-29T01:45:38.691Z,101171.63
2023-03-29T01:48:25.213Z,101170.72
2023-03-29T01:50:56.206Z,101177.78
2023-03-29T01:53:42.967Z,101179.53
2023-03-29T01:56:14.185Z,101169.97
2023-03-29T01:58:49.145Z,101168.22
2023-03-29T02:01:26.138Z,101163.88
2023-03-29T02:03:56.624Z,101149.03
2023-03-29T02:06:28.220Z,101153.41
2023-03-29T02:08:56.473Z,101142.91
2023-03-29T02:11:27.416Z,101139.34
2023-03-29T02:13:58.584Z,101139.31
2023-03-29T02:16:25.963Z,101142.88
2023-03-29T02:18:56.392Z,101134.16
2023-03-29T02:21:29.706Z,101136.69
2023-03-29T02:24:02.243Z,101140.16
2023-03-29T02:26:29.772Z,101135.81
2023-03-29T02:28:57.338Z,101130.66
2023-03-29T02:31:30.406Z,101130.66
2023-03-29T02:34:04.125Z,101114.06
2023-03-29T02:36:42.237Z,101125.44
2023-03-29T02:39:15.707Z,101132.34
2023-03-29T02:41:47.202Z,101121.09
2023-03-29T02:44:18.781Z,101118.38
2023-03-29T02:46:55.918Z,101115.75
2023-03-29T02:49:23.763Z,101114.00
2023-03-29T02:51:57.541Z,101115.72
2023-03-29T02:54:29.977Z,101117.47
2023-03-29T02:57:06.538Z,101110.59
2023-03-29T02:59:34.730Z,101115.81
2023-03-29T03:02:03.295Z,101109.69
2023-03-29T03:04:31.927Z,101108.84
2023-03-29T03:06:59.360Z,101096.59
2023-03-29T03:09:27.533Z,101096.63
2023-03-29T03:11:55.521Z,101096.63
2023-03-29T03:14:25.621Z,101089.63
2023-03-29T03:16:53.095Z,101088.78
2023-03-29T03:19:21.464Z,101087.03
2023-03-29T03:21:51.097Z,101089.63
2023-03-29T03:24:19.185Z,101083.53
2023-03-29T03:26:47.036Z,101085.25
2023-03-29T03:29:15.849Z,101087.91
2023-03-29T03:32:02.270Z,101071.34
2023-03-29T03:34:48.156Z,101064.38
2023-03-29T03:37:16.171Z,101066.13
2023-03-29T03:39:43.883Z,101068.72
2023-03-29T03:42:12.211Z,101069.56
2023-03-29T03:44:43.272Z,101070.44
2023-03-29T03:47:31.314Z,101066.97
2023-03-29T03:50:11.678Z,101054.75
2023-03-29T03:52:39.294Z,101068.69
2023-03-29T03:55:08.315Z,101066.09
2023-03-29T03:57:48.037Z,101059.09
2023-03-29T04:00:21.341Z,101059.06
2023-03-29T04:03:11.586Z,101043.41
2023-03-29T04:05:42.839Z,101058.22
2023-03-29T04:08:12.738Z,101058.22
2023-03-29T04:11:00.099Z,101060.84
2023-03-29T04:13:35.282Z,101051.22
2023-03-29T04:16:21.947Z,101053.84
2023-03-29T04:18:50.093Z,101054.72
2023-03-29T04:21:19.978Z,101053.84
2023-03-29T04:23:49.049Z,101054.75
2023-03-29T04:26:17.898Z,101056.47
2023-03-29T04:28:51.381Z,101038.13
2023-03-29T04:31:31.152Z,101038.09
2023-03-29T04:34:20.738Z,101043.47
2023-03-29T04:36:52.180Z,101035.53
2023-03-29T04:39:23.346Z,101037.34
2023-03-29T04:41:55.716Z,101032.91
2023-03-29T04:44:27.007Z,101024.19
2023-03-29T04:46:57.123Z,101031.22
2023-03-29T04:49:33.296Z,101025.94
2023-03-29T04:52:01.072Z,101018.94
2023-03-29T04:54:31.192Z,101018.13
2023-03-29T04:57:13.267Z,101024.19
2023-03-29T04:59:45.507Z,101024.19
2023-03-29T05:02:26.395Z,101021.53
2023-03-29T05:04:54.060Z,101015.44
2023-03-29T05:07:21.965Z,101019.00
2023-03-29T05:09:50.501Z,101019.81
2023-03-29T05:12:17.899Z,101015.44
2023-03-29T05:14:53.171Z,101012.84
2023-03-29T05:17:24.085Z,101006.72
2023-03-29T05:19:51.726Z,101011.97
2023-03-29T05:22:20.282Z,101006.72
2023-03-29T05:24:47.956Z,101004.94
2023-03-29T05:27:23.060Z,101016.28
2023-03-29T05:30:03.900Z,101017.97
2023-03-29T05:32:43.490Z,101017.03
2023-03-29T05:35:14.133Z,101011.75
2023-03-29T05:37:42.005Z,101016.94
2023-03-29T05:40:10.191Z,101017.84
2023-03-29T05:42:59.756Z,101003.72
2023-03-29T05:45:29.751Z,101007.16
2023-03-29T05:47:58.335Z,101006.28
2023-03-29T05:50:26.153Z,101002.81
2023-03-29T05:52:56.055Z,101006.28
2023-03-29T05:55:24.222Z,101011.53
2023-03-29T05:57:52.559Z,101014.13
2023-03-29T06:00:24.409Z,101010.63
2023-03-29T06:03:13.297Z,101017.59
2023-03-29T06:05:49.638Z,101016.72
2023-03-29T06:08:18.024Z,101018.41
2023-03-29T06:11:06.127Z,101016.47
2023-03-29T06:14:06.669Z,101005.06
2023-03-29T06:16:39.100Z,101008.69
2023-03-29T06:19:07.716Z,101002.59
2023-03-29T06:21:36.630Z,101004.31
2023-03-29T06:24:08.760Z,101006.91
2023-03-29T06:26:43.987Z,101012.13
2023-03-29T06:29:13.675Z,101003.50
2023-03-29T06:31:44.398Z,101001.06
2023-03-29T06:34:27.915Z,100984.59
2023-03-29T06:37:19.160Z,101000.44
2023-03-29T06:39:53.877Z,100995.25
2023-03-29T06:42:35.789Z,100990.97
2023-03-29T06:45:29.421Z,100995.44
2023-03-29T06:47:59.792Z,101007.75
2023-03-29T06:50:27.633Z,100995.56
2023-03-29T06:53:10.410Z,100995.59
2023-03-29T06:55:39.862Z,101001.69
2023-03-29T06:58:26.158Z,100992.06
2023-03-29T07:01:02.089Z,100987.72
2023-03-29T07:03:53.110Z,100981.59
2023-03-29T07:06:26.440Z,100980.72
2023-03-29T07:08:59.612Z,100985.97
2023-03-29T07:11:50.507Z,100998.13
2023-03-29T07:14:28.714Z,100991.09
2023-03-29T07:16:58.504Z,100992.81
2023-03-29T07:19:34.478Z,100983.19
2023-03-29T07:22:12.313Z,100990.19
2023-03-29T07:24:51.030Z,100988.44
2023-03-29T07:27:18.806Z,100982.28
2023-03-29T07:29:50.092Z,100977.03
2023-03-29T07:32:18.977Z,100971.84
2023-03-29T07:34:48.395Z,100975.28
2023-03-29T07:37:27.314Z,100977.94
2023-03-29T07:39:56.818Z,100978.78
2023-03-29T07:42:49.351Z,100972.66
2023-03-29T07:45:26.900Z,100980.47
2023-03-29T07:48:07.150Z,100977.00
2023-03-29T07:50:51.368Z,100980.50
2023-03-29T07:53:23.559Z,100991.88
2023-03-29T07:55:54.909Z,100991.88
2023-03-29T07:58:41.672Z,100981.41
2023-03-29T08:01:11.046Z,100975.25
2023-03-29T08:04:10.232Z,100990.13
2023-03-29T08:06:56.631Z,100982.28
2023-03-29T08:09:32.704Z,100977.91
2023-03-29T08:12:00.342Z,100983.16
2023-03-29T08:14:34.233Z,100996.25
2023-03-29T08:17:11.489Z,100995.34
2023-03-29T08:19:51.420Z,100992.78
2023-03-29T08:22:23.165Z,100985.81
2023-03-29T08:25:19.732Z,100991.94
2023-03-29T08:27:51.363Z,100983.19
2023-03-29T08:30:29.648Z,100984.09
2023-03-29T08:32:58.279Z,100979.75
2023-03-29T08:35:26.634Z,100979.78
2023-03-29T08:38:11.319Z,100985.00
2023-03-29T08:40:39.704Z,100973.66
2023-03-29T08:43:31.475Z,100965.78
2023-03-29T08:46:23.557Z,100959.72
2023-03-29T08:48:59.590Z,100971.97
2023-03-29T08:51:33.113Z,100972.88
2023-03-29T08:54:06.600Z,100975.47
2023-03-29T08:57:03.195Z,100972.84
2023-03-29T08:59:37.686Z,100956.22
2023-03-29T09:02:17.967Z,100956.22
2023-03-29T09:04:50.487Z,100954.47
2023-03-29T09:07:31.456Z,100957.94
2023-03-29T09:09:59.764Z,100963.19
2023-03-29T09:12:47.785Z,100959.63
2023-03-29T09:15:42.041Z,100943.88
2023-03-29T09:18:41.446Z,100943.00
2023-03-29T09:21:29.414Z,100932.44
2023-03-29T09:24:17.324Z,100928.84
2023-03-29T09:26:54.805Z,100920.00
2023-03-29T09:30:04.765Z,100915.47
2023-03-29T09:32:53.280Z,100920.59
2023-03-29T09:35:44.340Z,100911.91
2023-03-29T09:38:15.149Z,100904.84
2023-03-29T09:40:57.367Z,100911.75
2023-03-29T09:43:36.269Z,100903.75
2023-03-29T09:46:30.401Z,100901.13
2023-03-29T09:48:58.409Z,100913.44
2023-03-29T09:51:30.043Z,100914.28
2023-03-29T09:54:00.345Z,100915.16
2023-03-29T09:56:53.521Z,100916.84
2023-03-29T09:59:22.546Z,100909.81
2023-03-29T10:01:50.352Z,100915.91
2023-03-29T10:04:18.081Z,100912.34
2023-03-29T10:06:52.848Z,100912.41
2023-03-29T10:09:23.408Z,100901.88
2023-03-29T10:12:06.170Z,100900.97
2023-03-29T10:14:46.540Z,100906.91
2023-03-29T10:17:21.972Z,100891.03
2023-03-29T10:20:04.036Z,100884.75
2023-03-29T10:22:36.507Z,100890.88
2023-03-29T10:25:09.746Z,100880.25
2023-03-29T10:27:41.062Z,100879.31
2023-03-29T10:30:18.825Z,100885.50
2023-03-29T10:32:47.309Z,100871.38
2023-03-29T10:35:24.054Z,100870.28
2023-03-29T10:37:54.065Z,100865.69
2023-03-29T10:40:33.916Z,100870.00
2023-03-29T10:43:34.360Z,100868.09
2023-03-29T10:46:13.426Z,100866.38
2023-03-29T10:48:47.894Z,100874.97
2023-03-29T10:51:18.758Z,100874.00
2023-03-29T10:53:47.301Z,100864.34
2023-03-29T10:56:40.404Z,100858.09
2023-03-29T10:59:09.225Z,100849.13
2023-03-29T11:02:10.437Z,100836.75
2023-03-29T11:04:59.240Z,100839.13
2023-03-29T11:08:04.503Z,100843.34
2023-03-29T11:11:09.496Z,100844.84
2023-03-29T11:13:58.065Z,100839.16
2023-03-29T11:16:33.128Z,100829.09
2023-03-29T11:19:17.814Z,100825.28
2023-03-29T11:22:13.133Z,100825.09
2023-03-29T11:25:14.107Z,100829.63
2023-03-29T11:27:56.330Z,100824.28
2023-03-29T11:30:35.407Z,100829.63
2023-03-29T11:33:24.833Z,100831.72
2023-03-29T11:36:17.807Z,100832.56
2023-03-29T11:38:58.621Z,100822.66
2023-03-29T11:41:31.585Z,100829.47
2023-03-29T11:44:31.764Z,100817.72
2023-03-29T11:47:08.343Z,100818.34
2023-03-29T11:49:49.502Z,100813.63
2023-03-29T11:52:29.161Z,100803.56
2023-03-29T11:55:04.294Z,100817.44
2023-03-29T11:57:40.079Z,100808.63
2023-03-29T12:00:22.229Z,100819.19
2023-03-29T12:02:56.938Z,100812.84
2023-03-29T12:05:35.069Z,100810.72
2023-03-29T12:08:06.408Z,100817.34
2023-03-29T12:11:01.694Z,100789.53
2023-03-29T12:13:33.739Z,100798.56
2023-03-29T12:16:11.488Z,100802.31
2023-03-29T12:18:43.131Z,100784.41
2023-03-29T12:21:16.170Z,100771.41
2023-03-29T12:23:46.558Z,100785.53
2023-03-29T12:26:37.980Z,100779.94
2023-03-29T12:29:37.423Z,100777.91
2023-03-29T12:32:24.795Z,100774.88
2023-03-29T12:35:14.537Z,100777.44
2023-03-29T12:38:15.837Z,100775.00
2023-03-29T12:41:10.796Z,100779.91
2023-03-29T12:44:03.799Z,100776.25
2023-03-29T12:46:55.192Z,100781.38
2023-03-29T12:49:31.829Z,100775.97
2023-03-29T12:52:02.051Z,100776.00
2023-03-29T12:54:32.830Z,100770.38
2023-03-29T12:57:18.385Z,100770.28
2023-03-29T12:59:48.357Z,100763.59
2023-03-29T13:02:17.753Z,100764.22
2023-03-29T13:04:57.319Z,100745.19
2023-03-29T13:07:27.610Z,100747.72
2023-03-29T13:10:05.173Z,100744.66
2023-03-29T13:12:35.715Z,100751.97
2023-03-29T13:15:07.257Z,100734.19
2023-03-29T13:18:03.765Z,100732.16
2023-03-29T13:21:09.428Z,100721.91
2023-03-29T13:24:16.001Z,100718.13
2023-03-29T13:26:59.267Z,100717.09
2023-03-29T13:30:06.458Z,100721.53
2023-03-29T13:33:09.833Z,100693.94
2023-03-29T13:35:44.922Z,100708.78
2023-03-29T13:38:20.626Z,100716.03
2023-03-29T13:40:56.525Z,100705.84
2023-03-29T13:43:51.932Z,100705.69
2023-03-29T13:46:41.048Z,100703.69
2023-03-29T13:49:24.014Z,100699.25
2023-03-29T13:51:55.352Z,100695.06
2023-03-29T13:54:32.343Z,100683.88
2023-03-29T13:57:09.026Z,100696.84
2023-03-29T13:59:55.699Z,100675.91
2023-03-29T14:02:23.105Z,100676.97
2023-03-29T14:04:52.482Z,100689.25
2023-03-29T14:07:26.499Z,100681.00
2023-03-29T14:09:56.596Z,100682.16
2023-03-29T14:12:25.893Z,100676.41
2023-03-29T14:15:00.812Z,100676.63
2023-03-29T14:17:29.292Z,100674.69
2023-03-29T14:20:00.760Z,100675.22
2023-03-29T14:22:41.002Z,100668.16
2023-03-29T14:25:16.220Z,100667.09
2023-03-29T14:27:44.732Z,100664.91
2023-03-29T14:30:20.370Z,100663.03
2023-03-29T14:32:50.279Z,100654.63
2023-03-29T14:35:18.427Z,100645.94
2023-03-29T14:37:48.273Z,100648.72
2023-03-29T14:40:19.342Z,100649.69
2023-03-29T14:42:48.686Z,100647.34
2023-03-29T14:45:18.761Z,100646.16
2023-03-29T14:47:47.511Z,100638.22
2023-03-29T14:50:33.930Z,100633.81
2023-03-29T14:53:02.116Z,100629.34
2023-03-29T14:55:31.065Z,100629.34
2023-03-29T14:58:00.297Z,100619.41
2023-03-29T15:00:41.834Z,100617.66
2023-03-29T15:03:16.096Z,100606.84
2023-03-29T15:06:13.894Z,100606.09
2023-03-29T15:08:51.121Z,100606.16
2023-03-29T15:11:28.125Z,100610.16
2023-03-29T15:14:05.368Z,100605.75
2023-03-29T15:16:34.226Z,100609.16
2023-03-29T15:19:02.458Z,100594.66
2023-03-29T15:21:35.148Z,100586.59
2023-03-29T15:24:04.622Z,100595.28
2023-03-29T15:26:37.938Z,100585.72
2023-03-29T15:29:14.801Z,100585.69
2023-03-29T15:31:42.551Z,100583.00
2023-03-29T15:34:24.118Z,100570.84
2023-03-29T15:36:52.347Z,100566.69
2023-03-29T15:39:20.853Z,100546.66
2023-03-29T15:41:51.003Z,100570.78
2023-03-29T15:44:26.439Z,100565.84
2023-03-29T15:46:55.527Z,100551.53
2023-03-29T15:49:23.487Z,100563.38
2023-03-29T15:51:52.842Z,100564.28
2023-03-29T15:54:24.754Z,100564.25
2023-03-29T15:56:57.545Z,100546.34
2023-03-29T15:59:25.612Z,100554.53
2023-03-29T16:01:54.666Z,100566.03
2023-03-29T16:04:22.717Z,100558.16
2023-03-29T16:06:53.252Z,100547.66
2023-03-29T16:09:22.134Z,100548.84
2023-03-29T16:11:50.192Z,100552.44
2023-03-29T16:14:24.535Z,100541.13
2023-03-29T16:16:53.664Z,100545.00
2023-03-29T16:19:21.948Z,100529.00
2023-03-29T16:21:50.108Z,100533.38
2023-03-29T16:24:20.006Z,100529.72
2023-03-29T16:26:48.078Z,100552.63
2023-03-29T16:29:17.432Z,100526.47
2023-03-29T16:31:46.925Z,100536.19
2023-03-29T16:34:16.365Z,100532.00
2023-03-29T16:36:44.369Z,100518.38
2023-03-29T16:39:13.508Z,100528.00
2023-03-29T16:41:42.737Z,100526.50
2023-03-29T16:44:17.078Z,100530.88
2023-03-29T16:46:45.006Z,100531.41
2023-03-29T16:49:18.140Z,100532.84
2023-03-29T16:51:47.385Z,100532.84
2023-03-29T16:54:17.170Z,100545.22
2023-03-29T16:56:44.982Z,100522.91
2023-03-29T16:59:12.760Z,100535.66
2023-03-29T17:01:40.845Z,100521.72
2023-03-29T17:04:09.407Z,100521.72
2023-03-29T17:06:37.237Z,100514.97
2023-03-29T17:09:06.192Z,100518.19
2023-03-29T17:11:34.247Z,100530.28
2023-03-29T17:14:01.744Z,100534.66
2023-03-29T17:16:29.569Z,100534.53
2023-03-29T17:19:03.034Z,100544.91
2023-03-29T17:21:30.827Z,100546.22
2023-03-29T17:23:58.189Z,100559.56
2023-03-29T17:26:26.154Z,100555.19
2023-03-29T17:28:53.786Z,100557.22
2023-03-29T17:31:21.552Z,100557.47
2023-03-29T17:33:52.144Z,100548.19
2023-03-29T17:36:24.227Z,100542.56
2023-03-29T17:38:51.998Z,100540.91
2023-03-29T17:41:23.487Z,100547.44
2023-03-29T17:43:52.347Z,100534.47
2023-03-29T17:46:23.342Z,100543.50
2023-03-29T17:48:51.598Z,100557.69
2023-03-29T17:51:20.116Z,100568.19
2023-03-29T17:53:47.609Z,100568.44
2023-03-29T17:56:15.080Z,100583.34
2023-03-29T17:58:42.724Z,100604.47
2023-03-29T18:01:11.429Z,100614.22
2023-03-29T18:03:39.074Z,100608.03
2023-03-29T18:06:07.012Z,100612.53
2023-03-29T18:08:35.150Z,100609.22
2023-03-29T18:11:07.905Z,100602.16
2023-03-29T18:13:35.675Z,100579.31
2023-03-29T18:16:03.221Z,100584.72
2023-03-29T18:18:31.214Z,100580.31
2023-03-29T18:20:59.133Z,100574.13
2023-03-29T18:23:27.839Z,100570.03
2023-03-29T18:26:03.057Z,100572.78
2023-03-29T18:28:31.369Z,100577.31
2023-03-29T18:30:58.882Z,100570.44
2023-03-29T18:33:26.595Z,100568.75
2023-03-29T18:35:54.133Z,100577.56
2023-03-29T18:38:22.829Z,100595.22
2023-03-29T18:40:50.746Z,100660.00
2023-03-29T18:43:18.833Z,100589.91
2023-03-29T18:45:47.642Z,100593.41
2023-03-29T18:48:15.712Z,100596.09
2023-03-29T18:50:47.028Z,100617.13
2023-03-29T18:53:14.796Z,100616.31
2023-03-29T18:55:43.184Z,100641.81
2023-03-29T18:58:12.418Z,100641.88
2023-03-29T19:00:41.680Z,100608.56
2023-03-29T19:03:09.848Z,100606.91
2023-03-29T19:05:40.853Z,100580.47
2023-03-29T19:08:09.197Z,100565.75
2023-03-29T19:10:38.101Z,100577.31
2023-03-29T19:13:06.315Z,100601.75
2023-03-29T19:15:34.782Z,100611.22
2023-03-29T19:18:02.563Z,100614.69
2023-03-29T19:20:30.185Z,100621.94
2023-03-29T19:22:57.936Z,100614.91
2023-03-29T19:25:25.439Z,100608.75
2023-03-29T19:27:52.900Z,100616.66
2023-03-29T19:30:23.294Z,100616.88
2023-03-29T19:32:51.631Z,100630.91
2023-03-29T19:35:19.198Z,100648.47
2023-03-29T19:37:46.798Z,100639.72
2023-03-29T19:40:14.434Z,100639.63
2023-03-29T19:42:41.948Z,100587.94
2023-03-29T19:45:10.434Z,100603.88
2023-03-29T19:47:38.037Z,100655.53
2023-03-29T19:50:07.107Z,100654.72
2023-03-29T19:52:35.350Z,100659.91
2023-03-29T19:55:02.880Z,100655.56
2023-03-29T19:57:30.977Z,100674.06
2023-03-29T19:59:58.728Z,100700.41
2023-03-29T20:02:26.708Z,100705.69
2023-03-29T20:04:55.172Z,100726.66
2023-03-29T20:07:22.843Z,100713.56
2023-03-29T20:09:50.505Z,100660.19
2023-03-29T20:12:18.117Z,100632.13
2023-03-29T20:14:45.507Z,100654.06
2023-03-29T20:17:13.203Z,100635.78
2023-03-29T20:19:44.240Z,100642.75
2023-03-29T20:22:12.481Z,100628.75
2023-03-29T20:24:39.961Z,100608.53
2023-03-29T20:27:07.529Z,100611.19
2023-03-29T20:29:35.251Z,100616.38
2023-03-29T20:32:03.357Z,100622.53
2023-03-29T20:34:30.933Z,100635.78
2023-03-29T20:37:01.052Z,100651.66
2023-03-29T20:39:29.720Z,100660.41
2023-03-29T20:41:57.836Z,100657.97
2023-03-29T20:44:32.424Z,100664.09
2023-03-29T20:52:57.436Z,100633.59
2023-03-29T20:55:24.965Z,100643.28
2023-03-29T20:57:58.398Z,100652.97
2023-03-29T21:00:28.076Z,100653.03
2023-03-29T21:02:56.709Z,100654.88
2023-03-29T21:05:29.244Z,100640.78
2023-03-29T21:07:57.088Z,100651.41
2023-03-29T21:10:26.541Z,100641.78
2023-03-29T21:12:54.914Z,100655.75
2023-03-29T21:15:22.470Z,100660.22
2023-03-29T21:17:50.140Z,100654.03
2023-03-29T21:20:17.778Z,100650.53
2023-03-29T21:22:45.409Z,100647.06
2023-03-29T21:25:15.650Z,100648.78
2023-03-29T21:27:43.451Z,100653.25
2023-03-29T21:30:11.422Z,100654.25
2023-03-29T21:32:38.948Z,100654.22
2023-03-29T21:35:07.079Z,100621.94
2023-03-29T21:37:34.629Z,100555.34
2023-03-29T21:40:05.900Z,100598.28
2023-03-29T21:42:34.506Z,100558.03
2023-03-29T21:45:02.471Z,100535.31
2023-03-29T21:47:30.595Z,100520.50
2023-03-29T21:49:58.078Z,100479.41
2023-03-29T21:52:25.607Z,100480.31
2023-03-29T21:54:53.097Z,100478.66
2023-03-29T21:57:20.859Z,100503.19
2023-03-29T21:59:48.400Z,100518.06
2023-03-29T22:02:15.870Z,100539.88
2023-03-29T22:04:43.303Z,100529.34
2023-03-29T22:07:10.838Z,100537.25
2023-03-29T22:09:41.333Z,100532.88
2023-03-29T22:12:10.086Z,100522.47
2023-03-29T22:14:37.593Z,100518.97
2023-03-29T22:17:06.476Z,100536.47
2023-03-29T22:19:39.236Z,100547.03
2023-03-29T22:22:13.790Z,100553.97
2023-03-29T22:24:42.319Z,100550.50
2023-03-29T22:27:11.818Z,100559.31
2023-03-29T22:29:39.485Z,100578.56
2023-03-29T22:32:07.029Z,100579.47
2023-03-29T22:34:34.659Z,100569.84
2023-03-29T22:37:02.132Z,100581.22
2023-03-29T22:39:30.023Z,100577.75
2023-03-29T22:41:57.617Z,100573.34
2023-03-29T22:44:25.116Z,100576.00
2023-03-29T22:46:52.646Z,100581.25
2023-03-29T22:49:20.389Z,100569.88
2023-03-29T22:51:47.759Z,100570.75
2023-03-29T22:54:15.292Z,100566.41
2023-03-29T22:56:42.849Z,100569.00
2023-03-29T22:59:10.677Z,100559.47
2023-03-29T23:01:38.172Z,100562.09
2023-03-29T23:04:06.447Z,100563.00
2023-03-29T23:06:34.057Z,100563.00
2023-03-29T23:09:01.770Z,100556.03
2023-03-29T23:11:29.183Z,100561.28
2023-03-29T23:13:56.660Z,100571.78
2023-03-29T23:16:24.679Z,100571.75
2023-03-29T23:18:52.352Z,100571.72
2023-03-29T23:21:19.714Z,100574.31
2023-03-29T23:23:47.237Z,100574.31
2023-03-29T23:26:14.933Z,100573.50
2023-03-29T23:28:42.754Z,100572.56
2023-03-29T23:31:12.638Z,100582.22
2023-03-29T23:33:41.879Z,100574.31
2023-03-29T23:36:12.257Z,100576.06
2023-03-29T23:38:40.293Z,100576.91
2023-03-29T23:41:10.912Z,100590.03
2023-03-29T23:43:41.626Z,100583.91
2023-03-29T23:46:11.876Z,100600.47
2023-03-29T23:48:39.829Z,100592.63
2023-03-29T23:51:08.292Z,100581.25
2023-03-29T23:53:36.862Z,100583.00
2023-03-29T23:56:05.985Z,100566.41
2023-03-29T23:58:36.956Z,100558.53
